createdAt,value
2022-11-29T00:01:20.963Z,39.55
2022-11-29T00:03:47.623Z,35.45
2022-11-29T00:06:19.599Z,40.08
2022-11-29T00:08:46.802Z,34.40
2022-11-29T00:11:37.218Z,37.65
2022-11-29T00:14:03.955Z,34.05
2022-11-29T00:16:30.681Z,37.65
2022-11-29T00:18:57.224Z,33.72
2022-11-29T00:21:23.748Z,35.30
2022-11-29T00:23:50.287Z,36.17
2022-11-29T00:26:16.855Z,32.15
2022-11-29T00:28:43.439Z,32.00
2022-11-29T00:31:19.649Z,33.42
2022-11-29T00:33:46.631Z,37.13
2022-11-29T00:36:14.057Z,34.17
2022-11-29T00:38:41.300Z,31.15
2022-11-29T00:41:09.169Z,30.02
2022-11-29T00:43:36.154Z,35.65
2022-11-29T00:46:03.884Z,31.75
2022-11-29T00:48:31.284Z,35.88
2022-11-29T00:50:58.164Z,34.55
2022-11-29T00:53:25.060Z,33.05
2022-11-29T00:55:52.919Z,38.38
2022-11-29T00:58:20.215Z,36.35
2022-11-29T01:00:47.596Z,38.60
2022-11-29T01:03:15.104Z,40.70
2022-11-29T01:05:42.931Z,39.33
2022-11-29T01:08:10.830Z,39.85
2022-11-29T01:10:37.352Z,41.28
2022-11-29T01:13:03.898Z,35.70
2022-11-29T01:15:30.455Z,42.30
2022-11-29T01:17:56.926Z,41.30
2022-11-29T01:20:23.447Z,45.25
2022-11-29T01:22:50.063Z,39.53
2022-11-29T01:25:16.839Z,33.85
2022-11-29T01:27:43.310Z,35.83
2022-11-29T01:30:10.341Z,32.75
2022-11-29T01:32:37.104Z,30.15
2022-11-29T01:35:04.824Z,35.97
2022-11-29T01:37:32.023Z,35.13
2022-11-29T01:39:58.575Z,40.38
2022-11-29T01:42:25.260Z,32.53
2022-11-29T01:45:25.526Z,41.78
2022-11-29T01:47:56.787Z,31.92
2022-11-29T01:50:23.773Z,30.50
2022-11-29T01:52:50.630Z,27.95
2022-11-29T01:55:18.286Z,33.47
2022-11-29T01:57:45.187Z,32.00
2022-11-29T02:00:15.026Z,29.05
2022-11-29T02:02:50.786Z,28.75
2022-11-29T02:05:19.362Z,32.08
2022-11-29T02:07:51.040Z,33.03
2022-11-29T02:10:18.059Z,37.53
2022-11-29T02:13:33.854Z,30.20
2022-11-29T02:16:13.042Z,30.77
2022-11-29T02:18:54.051Z,30.33
2022-11-29T02:21:58.968Z,40.75
2022-11-29T02:25:00.954Z,38.50
2022-11-29T02:27:43.027Z,38.28
2022-11-29T02:32:58.509Z,38.33
2022-11-29T02:35:52.362Z,35.10
2022-11-29T02:38:25.698Z,31.23
2022-11-29T02:41:21.835Z,36.70
2022-11-29T02:44:07.089Z,49.03
2022-11-29T02:47:14.780Z,34.15
2022-11-29T02:50:08.838Z,28.77
2022-11-29T02:52:47.811Z,42.15
2022-11-29T02:55:47.052Z,32.50
2022-11-29T02:58:47.511Z,27.90
2022-11-29T03:01:24.025Z,29.80
2022-11-29T03:04:14.070Z,30.30
2022-11-29T03:07:01.634Z,33.38
2022-11-29T03:09:54.102Z,38.22
2022-11-29T03:12:49.841Z,38.45
2022-11-29T03:15:28.704Z,30.58
2022-11-29T03:18:03.481Z,37.45
2022-11-29T03:20:51.664Z,37.35
2022-11-29T03:23:34.266Z,30.15
2022-11-29T03:26:24.408Z,34.20
2022-11-29T03:29:07.290Z,29.42
2022-11-29T03:31:49.362Z,29.98
2022-11-29T03:36:51.301Z,26.80
2022-11-29T03:39:24.581Z,32.28
2022-11-29T03:41:58.551Z,26.58
2022-11-29T03:44:28.361Z,28.00
2022-11-29T03:47:03.375Z,34.72
2022-11-29T03:49:44.969Z,32.88
2022-11-29T03:52:35.600Z,26.70
2022-11-29T03:55:11.024Z,39.08
2022-11-29T03:57:53.317Z,41.67
2022-11-29T04:00:20.523Z,43.17
2022-11-29T04:03:17.083Z,49.10
2022-11-29T04:06:02.268Z,36.00
2022-11-29T04:08:59.864Z,47.72
2022-11-29T04:11:58.674Z,35.20
2022-11-29T04:14:47.438Z,42.35
2022-11-29T04:17:41.343Z,40.42
2022-11-29T04:20:26.160Z,35.08
2022-11-29T04:23:37.549Z,35.17
2022-11-29T04:26:30.902Z,37.90
2022-11-29T04:29:33.950Z,44.75
2022-11-29T04:32:21.321Z,30.83
2022-11-29T04:35:03.464Z,35.75
2022-11-29T04:37:56.271Z,28.50
2022-11-29T04:41:00.394Z,34.03
2022-11-29T04:44:06.198Z,28.58
2022-11-29T04:46:59.929Z,30.58
2022-11-29T04:49:29.239Z,32.60
2022-11-29T04:52:41.947Z,33.55
2022-11-29T04:55:35.396Z,31.52
2022-11-29T04:58:28.439Z,27.92
2022-11-29T05:01:14.946Z,31.27
2022-11-29T05:04:00.237Z,37.85
2022-11-29T05:06:42.571Z,35.85
2022-11-29T05:09:35.805Z,46.58
2022-11-29T05:12:18.733Z,49.70
2022-11-29T05:15:17.493Z,31.42
2022-11-29T05:18:19.511Z,36.80
2022-11-29T05:21:24.183Z,38.60
2022-11-29T05:24:06.802Z,36.45
2022-11-29T05:26:50.249Z,39.30
2022-11-29T05:29:26.067Z,41.20
2022-11-29T05:32:28.540Z,42.10
2022-11-29T05:35:13.675Z,37.47
2022-11-29T05:37:56.773Z,51.55
2022-11-29T05:40:41.160Z,49.05
2022-11-29T05:43:46.609Z,52.53
2022-11-29T05:46:29.049Z,53.50
2022-11-29T05:49:13.950Z,44.72
2022-11-29T05:51:50.289Z,43.47
2022-11-29T05:54:29.404Z,45.17
2022-11-29T05:57:23.057Z,46.38
2022-11-29T05:59:51.182Z,43.25
2022-11-29T06:02:26.557Z,42.85
2022-11-29T06:05:03.581Z,47.20
2022-11-29T06:07:40.800Z,40.08
2022-11-29T06:10:17.626Z,40.67
2022-11-29T06:13:36.485Z,39.83
2022-11-29T06:16:24.900Z,41.85
2022-11-29T06:18:57.356Z,43.55
2022-11-29T06:22:05.727Z,40.35
2022-11-29T06:24:51.762Z,46.70
2022-11-29T06:27:32.289Z,42.85
2022-11-29T06:30:15.806Z,49.72
2022-11-29T06:33:01.106Z,43.53
2022-11-29T06:35:47.095Z,40.90
2022-11-29T06:38:23.463Z,39.92
2022-11-29T06:40:51.019Z,46.13
2022-11-29T06:43:17.966Z,43.17
2022-11-29T06:45:50.135Z,43.25
2022-11-29T06:48:25.590Z,39.70
2022-11-29T06:51:00.155Z,37.83
2022-11-29T06:53:47.966Z,40.30
2022-11-29T06:56:33.607Z,40.90
2022-11-29T06:59:17.823Z,39.40
2022-11-29T07:02:22.456Z,39.20
2022-11-29T07:05:19.144Z,47.85
2022-11-29T07:07:48.327Z,44.45
2022-11-29T07:10:18.629Z,44.28
2022-11-29T07:12:47.674Z,56.03
2022-11-29T07:15:16.946Z,48.75
2022-11-29T07:18:09.409Z,53.53
2022-11-29T07:20:45.598Z,45.10
2022-11-29T07:23:36.010Z,51.72
2022-11-29T07:26:15.244Z,51.33
2022-11-29T07:29:26.218Z,50.08
2022-11-29T07:32:03.442Z,49.55
2022-11-29T07:34:43.625Z,50.90
2022-11-29T07:37:28.889Z,56.33
2022-11-29T07:40:05.764Z,49.22
2022-11-29T07:43:08.751Z,48.72
2022-11-29T07:45:38.319Z,47.65
2022-11-29T07:48:05.546Z,56.40
2022-11-29T07:50:32.074Z,53.08
2022-11-29T07:52:59.930Z,54.58
2022-11-29T07:55:27.526Z,56.30
2022-11-29T07:57:54.122Z,56.40
2022-11-29T08:00:21.707Z,56.83
2022-11-29T08:02:49.721Z,56.53
2022-11-29T08:05:16.503Z,50.15
2022-11-29T08:07:43.576Z,59.92
2022-11-29T08:10:13.918Z,50.33
2022-11-29T08:12:45.142Z,48.75
2022-11-29T08:15:12.430Z,54.33
2022-11-29T08:17:39.444Z,51.85
2022-11-29T08:20:07.298Z,54.60
2022-11-29T08:22:33.807Z,56.17
2022-11-29T08:25:00.407Z,52.95
2022-11-29T08:27:27.549Z,62.40
2022-11-29T08:29:54.086Z,55.35
2022-11-29T08:32:20.647Z,52.05
2022-11-29T08:34:47.401Z,54.53
2022-11-29T08:37:14.843Z,58.60
2022-11-29T08:39:41.493Z,67.22
2022-11-29T08:42:08.081Z,68.85
2022-11-29T08:44:34.691Z,75.55
2022-11-29T08:47:19.689Z,69.75
2022-11-29T08:50:04.098Z,79.25
2022-11-29T08:52:55.457Z,69.40
2022-11-29T08:55:24.875Z,84.80
2022-11-29T08:57:51.959Z,103.13
2022-11-29T09:00:21.123Z,101.40
2022-11-29T09:02:48.245Z,79.65
2022-11-29T09:05:15.791Z,75.55
2022-11-29T09:07:42.905Z,85.80
2022-11-29T09:10:11.240Z,99.88
2022-11-29T09:12:39.314Z,93.10
2022-11-29T09:15:09.006Z,91.72
2022-11-29T09:17:35.500Z,122.05
2022-11-29T09:20:02.187Z,101.80
2022-11-29T09:22:28.711Z,96.78
2022-11-29T09:24:55.234Z,92.70
2022-11-29T09:27:21.738Z,114.97
2022-11-29T09:29:48.266Z,112.50
2022-11-29T09:32:14.734Z,109.55
2022-11-29T09:34:42.237Z,98.75
2022-11-29T09:37:08.967Z,78.75
2022-11-29T09:39:35.428Z,96.78
2022-11-29T09:42:21.302Z,94.55
2022-11-29T09:44:59.266Z,92.18
2022-11-29T09:47:33.051Z,97.03
2022-11-29T09:50:27.169Z,108.30
2022-11-29T09:52:59.505Z,97.97
2022-11-29T09:55:59.412Z,104.20
2022-11-29T09:58:30.628Z,103.68
2022-11-29T10:01:02.478Z,107.95
2022-11-29T10:06:17.553Z,122.10
2022-11-29T10:08:49.927Z,129.75
2022-11-29T10:11:24.114Z,82.70
2022-11-29T10:14:13.764Z,108.78
2022-11-29T10:16:59.430Z,105.05
2022-11-29T10:19:38.219Z,94.40
2022-11-29T10:22:27.363Z,101.18
2022-11-29T10:24:59.057Z,81.13
2022-11-29T10:27:29.411Z,76.35
2022-11-29T10:29:58.057Z,86.50
2022-11-29T10:32:25.721Z,90.78
2022-11-29T10:34:52.254Z,79.07
2022-11-29T10:37:23.640Z,91.13
2022-11-29T10:39:58.664Z,82.63
2022-11-29T10:42:46.972Z,79.53
2022-11-29T10:45:20.745Z,88.80
2022-11-29T10:47:49.415Z,97.97
2022-11-29T10:50:31.244Z,101.80
2022-11-29T10:53:09.484Z,92.43
2022-11-29T10:55:45.669Z,124.80
2022-11-29T10:58:16.427Z,94.18
2022-11-29T11:01:07.072Z,107.93
2022-11-29T11:03:53.552Z,92.88
2022-11-29T11:06:26.722Z,112.78
2022-11-29T11:08:55.732Z,100.75
2022-11-29T11:11:25.022Z,124.95
2022-11-29T11:14:03.656Z,106.68
2022-11-29T11:16:35.580Z,136.15
2022-11-29T11:19:30.574Z,119.03
2022-11-29T11:22:01.856Z,112.35
2022-11-29T11:24:32.309Z,104.90
2022-11-29T11:27:00.183Z,104.22
2022-11-29T11:29:51.876Z,132.02
2022-11-29T11:32:20.001Z,113.57
2022-11-29T11:35:00.736Z,116.40
2022-11-29T11:37:32.269Z,116.82
2022-11-29T11:40:17.932Z,108.10
2022-11-29T11:42:45.004Z,102.38
2022-11-29T11:45:11.420Z,107.15
2022-11-29T11:47:47.826Z,106.20
2022-11-29T11:50:40.264Z,116.18
2022-11-29T11:53:18.161Z,111.85
2022-11-29T11:56:13.371Z,114.15
2022-11-29T11:58:51.709Z,120.57
2022-11-29T12:01:30.815Z,115.57
2022-11-29T12:04:02.869Z,113.30
2022-11-29T12:06:55.719Z,119.88
2022-11-29T12:09:42.022Z,125.43
2022-11-29T12:12:29.850Z,112.13
2022-11-29T12:15:07.046Z,120.28
2022-11-29T12:17:54.881Z,116.18
2022-11-29T12:20:28.225Z,94.60
2022-11-29T12:23:12.659Z,105.85
2022-11-29T12:26:02.897Z,106.07
2022-11-29T12:28:35.038Z,110.65
2022-11-29T12:31:13.927Z,104.70
2022-11-29T12:33:57.823Z,102.40
2022-11-29T12:36:49.767Z,105.13
2022-11-29T12:39:30.436Z,107.60
2022-11-29T12:42:15.919Z,103.20
2022-11-29T12:44:50.826Z,108.80
2022-11-29T12:47:55.924Z,109.43
2022-11-29T12:51:01.702Z,119.97
2022-11-29T12:53:59.027Z,114.05
2022-11-29T12:56:37.048Z,117.80
2022-11-29T12:59:21.807Z,104.07
2022-11-29T13:01:51.260Z,114.97
2022-11-29T13:04:29.645Z,105.32
2022-11-29T13:07:21.144Z,104.25
2022-11-29T13:09:55.216Z,104.70
2022-11-29T13:12:41.586Z,105.28
2022-11-29T13:15:41.661Z,105.05
2022-11-29T13:18:40.575Z,105.88
2022-11-29T13:21:32.815Z,110.10
2022-11-29T13:26:41.867Z,99.13
2022-11-29T13:29:15.479Z,102.18
2022-11-29T13:31:42.896Z,99.28
2022-11-29T13:34:13.802Z,92.22
2022-11-29T13:36:42.986Z,92.07
2022-11-29T13:39:15.384Z,89.13
2022-11-29T13:41:50.758Z,91.47
2022-11-29T13:44:32.269Z,94.85
2022-11-29T13:47:10.779Z,90.32
2022-11-29T13:50:03.598Z,85.00
2022-11-29T13:52:44.677Z,97.25
2022-11-29T13:55:23.367Z,93.60
2022-11-29T13:58:15.569Z,98.35
2022-11-29T14:00:42.593Z,91.97
2022-11-29T14:03:21.366Z,85.95
2022-11-29T14:05:50.632Z,83.45
2022-11-29T14:08:55.181Z,87.50
2022-11-29T14:11:36.118Z,80.95
2022-11-29T14:14:08.533Z,85.82
2022-11-29T14:16:44.498Z,84.65
2022-11-29T14:19:33.826Z,88.95
2022-11-29T14:22:06.648Z,90.60
2022-11-29T14:24:33.308Z,92.40
2022-11-29T14:27:14.565Z,87.25
2022-11-29T14:29:49.984Z,88.63
2022-11-29T14:32:45.919Z,83.50
2022-11-29T14:35:13.016Z,84.40
2022-11-29T14:37:56.851Z,89.90
2022-11-29T14:40:23.255Z,82.78
2022-11-29T14:42:50.968Z,80.25
2022-11-29T14:45:30.831Z,88.95
2022-11-29T14:47:58.071Z,81.95
2022-11-29T14:50:37.250Z,79.68
2022-11-29T14:53:06.846Z,80.35
2022-11-29T14:55:38.520Z,81.10
2022-11-29T14:58:16.344Z,83.53
2022-11-29T15:00:48.870Z,86.60
2022-11-29T15:03:25.041Z,79.95
2022-11-29T15:06:09.810Z,77.03
2022-11-29T15:08:57.295Z,81.78
2022-11-29T15:11:57.409Z,75.30
2022-11-29T15:14:52.742Z,83.00
2022-11-29T15:17:38.602Z,79.03
2022-11-29T15:20:42.427Z,83.88
2022-11-29T15:23:15.156Z,91.28
2022-11-29T15:25:52.334Z,82.78
2022-11-29T15:28:24.982Z,85.95
2022-11-29T15:31:03.838Z,80.25
2022-11-29T15:33:30.886Z,83.28
2022-11-29T15:36:05.501Z,79.80
2022-11-29T15:38:42.769Z,82.57
2022-11-29T15:41:29.514Z,82.07
2022-11-29T15:44:04.548Z,82.47
2022-11-29T15:46:33.673Z,83.47
2022-11-29T15:49:26.468Z,88.40
2022-11-29T15:51:58.088Z,85.85
2022-11-29T15:54:35.799Z,86.00
2022-11-29T15:57:24.587Z,85.07
2022-11-29T15:59:58.966Z,84.30
2022-11-29T16:02:32.048Z,84.10
2022-11-29T16:05:03.291Z,80.40
2022-11-29T16:07:32.592Z,81.78
2022-11-29T16:10:10.926Z,85.63
2022-11-29T16:12:53.771Z,95.03
2022-11-29T16:15:29.737Z,90.95
2022-11-29T16:17:56.345Z,89.07
2022-11-29T16:20:25.024Z,92.25
2022-11-29T16:23:14.091Z,86.70
2022-11-29T16:26:01.879Z,83.75
2022-11-29T16:28:36.472Z,81.82
2022-11-29T16:31:04.862Z,79.45
2022-11-29T16:33:32.085Z,80.20
2022-11-29T16:36:22.910Z,77.43
2022-11-29T16:39:07.832Z,75.47
2022-11-29T16:41:38.610Z,78.00
2022-11-29T16:44:15.674Z,78.25
2022-11-29T16:46:42.256Z,77.65
2022-11-29T16:49:33.302Z,77.82
2022-11-29T16:52:00.553Z,73.32
2022-11-29T16:54:33.943Z,78.85
2022-11-29T16:57:05.145Z,83.38
2022-11-29T16:59:32.497Z,90.18
2022-11-29T17:01:59.363Z,92.60
2022-11-29T17:04:26.406Z,90.32
2022-11-29T17:06:54.702Z,82.18
2022-11-29T17:09:26.764Z,82.82
2022-11-29T17:11:54.437Z,89.63
2022-11-29T17:14:21.149Z,81.45
2022-11-29T17:16:49.407Z,80.35
2022-11-29T17:19:16.485Z,79.57
2022-11-29T17:21:43.106Z,69.43
2022-11-29T17:24:12.179Z,75.30
2022-11-29T17:26:38.989Z,79.00
2022-11-29T17:29:05.614Z,80.70
2022-11-29T17:31:32.421Z,74.20
2022-11-29T17:34:00.642Z,73.53
2022-11-29T17:36:27.601Z,77.15
2022-11-29T17:38:54.353Z,79.45
2022-11-29T17:41:23.543Z,77.50
2022-11-29T17:43:51.318Z,79.97
2022-11-29T17:46:32.105Z,75.43
2022-11-29T17:48:59.893Z,77.95
2022-11-29T17:51:51.059Z,73.78
2022-11-29T17:54:13.322Z,74.72
2022-11-29T17:56:39.809Z,72.70
2022-11-29T17:59:06.339Z,72.85
2022-11-29T18:01:35.622Z,72.30
2022-11-29T18:04:04.832Z,73.68
2022-11-29T18:06:35.684Z,76.10
2022-11-29T18:09:03.788Z,77.30
2022-11-29T18:11:46.800Z,76.38
2022-11-29T18:14:19.758Z,81.13
2022-11-29T18:19:16.370Z,77.80
2022-11-29T18:21:43.419Z,79.82
2022-11-29T18:24:10.093Z,82.25
2022-11-29T18:26:38.212Z,77.05
2022-11-29T18:29:06.361Z,83.82
2022-11-29T18:31:35.146Z,79.88
2022-11-29T18:34:03.483Z,71.90
2022-11-29T18:36:33.198Z,77.50
2022-11-29T18:39:02.285Z,79.90
2022-11-29T18:41:30.223Z,84.72
2022-11-29T18:44:11.361Z,76.78
2022-11-29T18:46:40.344Z,83.17
2022-11-29T18:49:08.741Z,80.95
2022-11-29T18:51:36.974Z,76.18
2022-11-29T18:54:04.137Z,85.75
2022-11-29T18:56:32.755Z,86.93
2022-11-29T18:59:01.087Z,79.60
2022-11-29T19:01:29.962Z,92.00
2022-11-29T19:03:59.449Z,78.80
2022-11-29T19:06:32.831Z,77.55
2022-11-29T19:09:05.189Z,89.75
2022-11-29T19:11:32.951Z,78.07
2022-11-29T19:14:03.151Z,101.57
2022-11-29T19:16:32.298Z,82.80
2022-11-29T19:19:00.641Z,84.45
2022-11-29T19:21:29.655Z,91.32
2022-11-29T19:23:58.395Z,79.13
2022-11-29T19:26:27.485Z,83.07
2022-11-29T19:28:54.671Z,82.18
2022-11-29T19:31:24.826Z,81.18
2022-11-29T19:33:52.651Z,94.60
2022-11-29T19:36:28.602Z,81.20
2022-11-29T19:38:56.118Z,81.40
2022-11-29T19:41:25.821Z,83.35
2022-11-29T19:43:52.442Z,86.13
2022-11-29T19:46:21.746Z,94.60
2022-11-29T19:48:49.042Z,91.97
2022-11-29T19:51:18.909Z,83.30
2022-11-29T19:53:46.915Z,81.78
2022-11-29T19:56:17.363Z,84.95
2022-11-29T19:58:44.377Z,93.75
2022-11-29T20:01:17.347Z,101.30
2022-11-29T20:03:45.076Z,96.50
2022-11-29T20:06:13.470Z,81.32
2022-11-29T20:08:40.452Z,93.43
2022-11-29T20:11:18.997Z,90.38
2022-11-29T20:13:47.751Z,93.88
2022-11-29T20:16:18.139Z,82.07
2022-11-29T20:18:50.647Z,90.38
2022-11-29T20:21:22.042Z,92.18
2022-11-29T20:23:48.943Z,85.57
2022-11-29T20:26:18.290Z,90.35
2022-11-29T20:28:46.295Z,87.30
2022-11-29T20:31:21.307Z,83.78
2022-11-29T20:33:48.838Z,85.40
2022-11-29T20:36:39.943Z,87.28
2022-11-29T20:39:36.381Z,85.32
2022-11-29T20:42:11.910Z,84.57
2022-11-29T20:44:46.180Z,89.05
2022-11-29T20:47:24.378Z,86.55
2022-11-29T20:49:51.325Z,96.03
2022-11-29T20:52:36.537Z,95.57
2022-11-29T20:55:04.569Z,96.03
2022-11-29T20:57:31.119Z,99.75
2022-11-29T20:59:57.627Z,90.43
2022-11-29T21:02:24.765Z,94.63
2022-11-29T21:04:51.537Z,93.95
2022-11-29T21:07:18.217Z,97.15
2022-11-29T21:09:45.148Z,99.78
2022-11-29T21:12:12.259Z,101.50
2022-11-29T21:14:38.998Z,96.53
2022-11-29T21:17:05.799Z,97.15
2022-11-29T21:19:32.488Z,100.45
2022-11-29T21:22:14.464Z,102.55
2022-11-29T21:25:15.749Z,100.38
2022-11-29T21:27:42.506Z,104.72
2022-11-29T21:30:21.114Z,103.00
2022-11-29T21:32:48.149Z,101.95
2022-11-29T21:35:15.064Z,103.80
2022-11-29T21:37:42.912Z,107.85
2022-11-29T21:40:10.919Z,104.32
2022-11-29T21:42:37.961Z,105.80
2022-11-29T21:45:08.233Z,119.60
2022-11-29T21:47:39.879Z,110.25
2022-11-29T21:50:07.147Z,117.05
2022-11-29T21:52:33.747Z,118.78
2022-11-29T21:55:00.235Z,117.18
2022-11-29T21:57:26.737Z,117.43
2022-11-29T21:59:53.681Z,119.15
2022-11-29T22:02:20.533Z,114.80
2022-11-29T22:04:47.298Z,118.75
2022-11-29T22:07:13.896Z,117.88
2022-11-29T22:09:40.418Z,116.35
2022-11-29T22:12:31.795Z,122.80
2022-11-29T22:14:53.462Z,124.78
2022-11-29T22:17:19.919Z,117.55
2022-11-29T22:19:46.444Z,114.38
2022-11-29T22:22:13.173Z,113.43
2022-11-29T22:24:39.626Z,121.63
2022-11-29T22:27:06.332Z,114.55
2022-11-29T22:29:32.925Z,114.07
2022-11-29T22:32:01.031Z,110.15
2022-11-29T22:34:28.077Z,116.68
2022-11-29T22:36:54.822Z,112.82
2022-11-29T22:39:22.530Z,104.65
2022-11-29T22:41:53.845Z,109.40
2022-11-29T22:44:21.507Z,103.13
2022-11-29T22:46:48.116Z,107.53
2022-11-29T22:49:14.761Z,102.82
2022-11-29T22:51:41.308Z,101.80
2022-11-29T22:54:10.335Z,95.28
2022-11-29T22:56:39.230Z,93.68
2022-11-29T22:59:06.016Z,92.95
2022-11-29T23:01:34.746Z,91.28
2022-11-29T23:04:04.056Z,92.40
2022-11-29T23:06:36.777Z,86.07
2022-11-29T23:09:11.900Z,91.13
2022-11-29T23:11:38.754Z,90.88
2022-11-29T23:14:05.223Z,89.93
2022-11-29T23:16:32.803Z,89.22
2022-11-29T23:19:00.299Z,80.68
2022-11-29T23:21:29.882Z,84.55
2022-11-29T23:23:57.210Z,81.30
2022-11-29T23:26:37.263Z,78.45
2022-11-29T23:29:05.454Z,76.32
2022-11-29T23:31:32.687Z,79.93
2022-11-29T23:33:59.179Z,77.72
2022-11-29T23:36:25.849Z,81.13
2022-11-29T23:38:52.455Z,73.65
2022-11-29T23:41:19.274Z,73.70
2022-11-29T23:43:45.938Z,75.18
2022-11-29T23:46:16.309Z,76.18
2022-11-29T23:48:43.875Z,69.70
2022-11-29T23:51:11.081Z,66.72
2022-11-29T23:53:37.806Z,68.85
2022-11-29T23:56:12.073Z,71.22
2022-11-29T23:58:39.099Z,59.63
